sensor_id;sensor_type;location;lat;lon;timestamp;temperature;humidity
35240;DHT22;21376;50.954;4.716;2023-08-12T00:03:56;20.80;99.90
35240;DHT22;21376;50.954;4.716;2023-08-12T00:06:24;20.90;99.90
35240;DHT22;21376;50.954;4.716;2023-08-12T00:08:53;20.80;99.90
35240;DHT22;21376;50.954;4.716;2023-08-12T00:14:07;20.70;99.90
35240;DHT22;21376;50.954;4.716;2023-08-12T00:16:36;20.70;99.90
35240;DHT22;21376;50.954;4.716;2023-08-12T00:19:04;20.70;99.90
35240;DHT22;21376;50.954;4.716;2023-08-12T00:21:30;20.70;99.90
35240;DHT22;21376;50.954;4.716;2023-08-12T00:26:32;20.70;99.90
35240;DHT22;21376;50.954;4.716;2023-08-12T00:29:11;20.70;99.90
35240;DHT22;21376;50.954;4.716;2023-08-12T00:36:58;20.70;99.90
35240;DHT22;21376;50.954;4.716;2023-08-12T00:39:23;20.70;99.90
35240;DHT22;21376;50.954;4.716;2023-08-12T00:44:39;20.90;99.90
35240;DHT22;21376;50.954;4.716;2023-08-12T00:47:06;20.60;99.90
35240;DHT22;21376;50.954;4.716;2023-08-12T00:52:06;20.50;99.90
35240;DHT22;21376;50.954;4.716;2023-08-12T00:54:35;20.60;99.90
35240;DHT22;21376;50.954;4.716;2023-08-12T00:57:04;20.70;99.90
35240;DHT22;21376;50.954;4.716;2023-08-12T00:59:37;20.40;99.90
35240;DHT22;21376;50.954;4.716;2023-08-12T01:07:05;20.60;99.90
35240;DHT22;21376;50.954;4.716;2023-08-12T01:09:34;20.60;99.90
35240;DHT22;21376;50.954;4.716;2023-08-12T01:17:22;20.50;99.90
35240;DHT22;21376;50.954;4.716;2023-08-12T01:19:49;20.50;99.90
35240;DHT22;21376;50.954;4.716;2023-08-12T01:22:27;20.30;99.90
35240;DHT22;21376;50.954;4.716;2023-08-12T01:24:57;20.40;99.90
35240;DHT22;21376;50.954;4.716;2023-08-12T01:27:23;20.60;99.90
35240;DHT22;21376;50.954;4.716;2023-08-12T01:29:52;20.50;99.90
35240;DHT22;21376;50.954;4.716;2023-08-12T01:32:24;20.40;99.90
35240;DHT22;21376;50.954;4.716;2023-08-12T01:37:38;20.50;99.90
35240;DHT22;21376;50.954;4.716;2023-08-12T01:40:06;20.30;99.90
35240;DHT22;21376;50.954;4.716;2023-08-12T01:42:38;20.30;99.90
35240;DHT22;21376;50.954;4.716;2023-08-12T01:45:05;20.10;99.90
35240;DHT22;21376;50.954;4.716;2023-08-12T01:47:31;20.20;99.90
35240;DHT22;21376;50.954;4.716;2023-08-12T01:52:27;20.20;99.90
35240;DHT22;21376;50.954;4.716;2023-08-12T01:57:22;20.10;99.90
35240;DHT22;21376;50.954;4.716;2023-08-12T02:02:20;20.20;99.90
35240;DHT22;21376;50.954;4.716;2023-08-12T02:04:59;20.20;99.90
35240;DHT22;21376;50.954;4.716;2023-08-12T02:09:56;20.40;99.90
35240;DHT22;21376;50.954;4.716;2023-08-12T02:14:54;20.30;99.90
35240;DHT22;21376;50.954;4.716;2023-08-12T02:17:23;20.40;99.90
35240;DHT22;21376;50.954;4.716;2023-08-12T02:19:49;20.60;99.90
35240;DHT22;21376;50.954;4.716;2023-08-12T02:27:14;20.80;99.90
35240;DHT22;21376;50.954;4.716;2023-08-12T02:29:40;20.80;99.90
35240;DHT22;21376;50.954;4.716;2023-08-12T02:34:38;20.90;99.90
35240;DHT22;21376;50.954;4.716;2023-08-12T02:37:04;20.80;99.90
35240;DHT22;21376;50.954;4.716;2023-08-12T02:44:52;20.90;99.90
35240;DHT22;21376;50.954;4.716;2023-08-12T02:47:20;20.70;99.90
35240;DHT22;21376;50.954;4.716;2023-08-12T02:49:49;20.70;99.90
35240;DHT22;21376;50.954;4.716;2023-08-12T02:57:13;20.70;99.90
35240;DHT22;21376;50.954;4.716;2023-08-12T02:59:42;20.60;99.90
35240;DHT22;21376;50.954;4.716;2023-08-12T03:02:08;20.70;99.90
35240;DHT22;21376;50.954;4.716;2023-08-12T03:04:39;20.70;99.90
35240;DHT22;21376;50.954;4.716;2023-08-12T03:07:06;20.70;99.90
35240;DHT22;21376;50.954;4.716;2023-08-12T03:09:35;20.50;99.90
35240;DHT22;21376;50.954;4.716;2023-08-12T03:12:04;20.60;99.90
35240;DHT22;21376;50.954;4.716;2023-08-12T03:27:17;20.70;99.90
35240;DHT22;21376;50.954;4.716;2023-08-12T03:32:12;20.70;99.90
35240;DHT22;21376;50.954;4.716;2023-08-12T03:40:15;20.60;99.90
35240;DHT22;21376;50.954;4.716;2023-08-12T03:45:27;20.10;99.90
35240;DHT22;21376;50.954;4.716;2023-08-12T03:47:54;20.10;99.90
35240;DHT22;21376;50.954;4.716;2023-08-12T03:50:20;20.20;99.90
35240;DHT22;21376;50.954;4.716;2023-08-12T03:52:48;20.30;99.90
35240;DHT22;21376;50.954;4.716;2023-08-12T03:55:14;20.40;99.90
35240;DHT22;21376;50.954;4.716;2023-08-12T03:57:43;20.50;99.90
35240;DHT22;21376;50.954;4.716;2023-08-12T04:00:15;20.60;99.90
35240;DHT22;21376;50.954;4.716;2023-08-12T04:02:42;20.60;99.90
35240;DHT22;21376;50.954;4.716;2023-08-12T04:05:11;20.40;99.90
35240;DHT22;21376;50.954;4.716;2023-08-12T04:10:14;20.50;99.90
35240;DHT22;21376;50.954;4.716;2023-08-12T04:12:41;20.60;99.90
35240;DHT22;21376;50.954;4.716;2023-08-12T04:15:10;20.20;99.90
35240;DHT22;21376;50.954;4.716;2023-08-12T04:26:06;19.80;99.90
35240;DHT22;21376;50.954;4.716;2023-08-12T04:28:31;19.90;99.90
35240;DHT22;21376;50.954;4.716;2023-08-12T04:33:39;19.90;99.90
35240;DHT22;21376;50.954;4.716;2023-08-12T04:36:07;19.90;99.90
35240;DHT22;21376;50.954;4.716;2023-08-12T04:46:54;19.60;99.90
35240;DHT22;21376;50.954;4.716;2023-08-12T04:49:22;19.60;99.90
35240;DHT22;21376;50.954;4.716;2023-08-12T04:51:51;19.60;99.90
35240;DHT22;21376;50.954;4.716;2023-08-12T04:54:16;19.60;99.90
35240;DHT22;21376;50.954;4.716;2023-08-12T04:59:14;19.60;99.90
35240;DHT22;21376;50.954;4.716;2023-08-12T05:01:40;19.60;99.90
35240;DHT22;21376;50.954;4.716;2023-08-12T05:04:07;19.70;99.90
35240;DHT22;21376;50.954;4.716;2023-08-12T05:09:10;19.80;99.90
35240;DHT22;21376;50.954;4.716;2023-08-12T05:11:54;19.80;99.90
35240;DHT22;21376;50.954;4.716;2023-08-12T05:16:52;19.60;99.90
35240;DHT22;21376;50.954;4.716;2023-08-12T05:21:50;19.70;99.90
35240;DHT22;21376;50.954;4.716;2023-08-12T05:26:48;19.70;99.90
35240;DHT22;21376;50.954;4.716;2023-08-12T05:32:10;19.70;99.90
35240;DHT22;21376;50.954;4.716;2023-08-12T05:34:36;19.70;99.90
35240;DHT22;21376;50.954;4.716;2023-08-12T05:39:34;19.70;99.90
35240;DHT22;21376;50.954;4.716;2023-08-12T05:41:59;19.70;99.90
35240;DHT22;21376;50.954;4.716;2023-08-12T05:44:27;19.60;99.90
35240;DHT22;21376;50.954;4.716;2023-08-12T05:46:54;19.70;99.90
35240;DHT22;21376;50.954;4.716;2023-08-12T05:49:26;19.80;99.90
35240;DHT22;21376;50.954;4.716;2023-08-12T05:54:20;19.80;99.90
35240;DHT22;21376;50.954;4.716;2023-08-12T05:56:52;19.90;99.90
35240;DHT22;21376;50.954;4.716;2023-08-12T06:04:22;20.00;99.90
35240;DHT22;21376;50.954;4.716;2023-08-12T06:06:49;20.00;99.90
35240;DHT22;21376;50.954;4.716;2023-08-12T06:17:10;20.00;99.90
35240;DHT22;21376;50.954;4.716;2023-08-12T06:19:39;19.90;99.90
35240;DHT22;21376;50.954;4.716;2023-08-12T06:22:11;19.90;99.90
35240;DHT22;21376;50.954;4.716;2023-08-12T06:24:37;19.80;99.90
35240;DHT22;21376;50.954;4.716;2023-08-12T06:29:35;20.10;99.90
35240;DHT22;21376;50.954;4.716;2023-08-12T06:32:15;20.10;99.90
35240;DHT22;21376;50.954;4.716;2023-08-12T06:34:44;20.10;99.90
35240;DHT22;21376;50.954;4.716;2023-08-12T06:39:41;20.10;99.90
35240;DHT22;21376;50.954;4.716;2023-08-12T06:44:36;20.00;99.90
35240;DHT22;21376;50.954;4.716;2023-08-12T06:47:10;20.10;99.90
35240;DHT22;21376;50.954;4.716;2023-08-12T06:49:36;20.10;99.90
35240;DHT22;21376;50.954;4.716;2023-08-12T06:52:02;20.30;99.90
35240;DHT22;21376;50.954;4.716;2023-08-12T06:54:30;20.40;99.90
35240;DHT22;21376;50.954;4.716;2023-08-12T06:56:56;20.50;99.90
35240;DHT22;21376;50.954;4.716;2023-08-12T06:59:25;20.50;99.90
35240;DHT22;21376;50.954;4.716;2023-08-12T07:04:21;20.60;99.90
35240;DHT22;21376;50.954;4.716;2023-08-12T07:06:48;20.50;99.90
35240;DHT22;21376;50.954;4.716;2023-08-12T07:11:49;20.70;99.90
35240;DHT22;21376;50.954;4.716;2023-08-12T07:14:19;20.80;99.90
35240;DHT22;21376;50.954;4.716;2023-08-12T07:16:44;20.70;99.90
35240;DHT22;21376;50.954;4.716;2023-08-12T07:19:13;20.70;99.90
35240;DHT22;21376;50.954;4.716;2023-08-12T07:21:42;20.70;99.90
35240;DHT22;21376;50.954;4.716;2023-08-12T07:24:10;20.60;99.90
35240;DHT22;21376;50.954;4.716;2023-08-12T07:26:36;20.60;99.90
35240;DHT22;21376;50.954;4.716;2023-08-12T07:29:04;20.70;99.90
35240;DHT22;21376;50.954;4.716;2023-08-12T07:31:29;20.90;99.90
35240;DHT22;21376;50.954;4.716;2023-08-12T07:36:27;21.20;99.90
35240;DHT22;21376;50.954;4.716;2023-08-12T07:38:53;21.30;99.90
35240;DHT22;21376;50.954;4.716;2023-08-12T07:41:29;21.30;99.90
35240;DHT22;21376;50.954;4.716;2023-08-12T07:43:54;21.10;99.90
35240;DHT22;21376;50.954;4.716;2023-08-12T07:46:20;21.10;99.90
35240;DHT22;21376;50.954;4.716;2023-08-12T07:48:46;21.10;99.90
35240;DHT22;21376;50.954;4.716;2023-08-12T07:53:49;21.20;99.90
35240;DHT22;21376;50.954;4.716;2023-08-12T07:56:29;21.10;99.90
35240;DHT22;21376;50.954;4.716;2023-08-12T08:01:26;21.10;99.90
35240;DHT22;21376;50.954;4.716;2023-08-12T08:06:27;21.00;99.90
35240;DHT22;21376;50.954;4.716;2023-08-12T08:09:01;20.90;99.90
35240;DHT22;21376;50.954;4.716;2023-08-12T08:11:32;20.90;99.90
35240;DHT22;21376;50.954;4.716;2023-08-12T08:16:28;20.60;99.90
35240;DHT22;21376;50.954;4.716;2023-08-12T08:18:59;20.60;99.90
35240;DHT22;21376;50.954;4.716;2023-08-12T08:21:27;20.70;99.90
35240;DHT22;21376;50.954;4.716;2023-08-12T08:23:53;20.80;99.90
35240;DHT22;21376;50.954;4.716;2023-08-12T08:26:25;20.90;99.90
35240;DHT22;21376;50.954;4.716;2023-08-12T08:31:21;20.90;99.90
35240;DHT22;21376;50.954;4.716;2023-08-12T08:33:49;21.00;99.90
35240;DHT22;21376;50.954;4.716;2023-08-12T08:36:18;20.90;99.90
35240;DHT22;21376;50.954;4.716;2023-08-12T08:38:45;20.90;99.90
35240;DHT22;21376;50.954;4.716;2023-08-12T08:41:16;20.90;99.90
35240;DHT22;21376;50.954;4.716;2023-08-12T08:43:45;20.90;99.90
35240;DHT22;21376;50.954;4.716;2023-08-12T08:46:19;21.00;99.90
35240;DHT22;21376;50.954;4.716;2023-08-12T08:48:48;21.10;99.90
35240;DHT22;21376;50.954;4.716;2023-08-12T08:53:45;21.20;99.90
35240;DHT22;21376;50.954;4.716;2023-08-12T08:58:40;21.00;99.90
35240;DHT22;21376;50.954;4.716;2023-08-12T09:01:08;21.00;99.90
35240;DHT22;21376;50.954;4.716;2023-08-12T09:03:37;21.00;99.90
35240;DHT22;21376;50.954;4.716;2023-08-12T09:06:05;21.00;99.90
35240;DHT22;21376;50.954;4.716;2023-08-12T09:11:12;21.40;99.90
35240;DHT22;21376;50.954;4.716;2023-08-12T09:16:13;21.30;99.90
35240;DHT22;21376;50.954;4.716;2023-08-12T09:21:15;21.10;99.90
35240;DHT22;21376;50.954;4.716;2023-08-12T09:23:44;21.10;99.90
35240;DHT22;21376;50.954;4.716;2023-08-12T09:26:18;21.00;99.90
35240;DHT22;21376;50.954;4.716;2023-08-12T09:31:23;21.40;99.90
35240;DHT22;21376;50.954;4.716;2023-08-12T09:33:58;21.60;99.90
35240;DHT22;21376;50.954;4.716;2023-08-12T09:36:28;21.70;99.90
35240;DHT22;21376;50.954;4.716;2023-08-12T09:39:05;21.60;99.90
35240;DHT22;21376;50.954;4.716;2023-08-12T09:41:31;21.90;99.90
35240;DHT22;21376;50.954;4.716;2023-08-12T09:43:57;22.00;99.90
35240;DHT22;21376;50.954;4.716;2023-08-12T09:46:23;22.10;99.90
35240;DHT22;21376;50.954;4.716;2023-08-12T09:51:21;22.00;99.90
35240;DHT22;21376;50.954;4.716;2023-08-12T09:53:53;21.90;99.90
35240;DHT22;21376;50.954;4.716;2023-08-12T09:58:51;22.00;99.90
35240;DHT22;21376;50.954;4.716;2023-08-12T10:01:35;21.50;99.90
35240;DHT22;21376;50.954;4.716;2023-08-12T10:04:04;21.30;99.90
35240;DHT22;21376;50.954;4.716;2023-08-12T10:06:37;21.30;99.90
35240;DHT22;21376;50.954;4.716;2023-08-12T10:09:10;22.40;99.90
35240;DHT22;21376;50.954;4.716;2023-08-12T10:16:50;23.50;99.90
35240;DHT22;21376;50.954;4.716;2023-08-12T10:21:55;22.80;99.90
35240;DHT22;21376;50.954;4.716;2023-08-12T10:26:59;22.50;99.90
35240;DHT22;21376;50.954;4.716;2023-08-12T10:29:28;22.60;99.90
35240;DHT22;21376;50.954;4.716;2023-08-12T10:31:59;23.40;99.90
35240;DHT22;21376;50.954;4.716;2023-08-12T10:37:00;24.50;99.90
35240;DHT22;21376;50.954;4.716;2023-08-12T10:39:26;24.30;99.90
35240;DHT22;21376;50.954;4.716;2023-08-12T10:41:57;24.00;99.90
35240;DHT22;21376;50.954;4.716;2023-08-12T11:05:37;26.00;99.90
35240;DHT22;21376;50.954;4.716;2023-08-12T11:10:34;27.50;99.90
35240;DHT22;21376;50.954;4.716;2023-08-12T11:13:03;26.70;99.90
35240;DHT22;21376;50.954;4.716;2023-08-12T11:15:44;27.20;99.90
35240;DHT22;21376;50.954;4.716;2023-08-12T11:21:24;28.70;99.90
35240;DHT22;21376;50.954;4.716;2023-08-12T11:24:04;28.70;99.90
35240;DHT22;21376;50.954;4.716;2023-08-12T11:34:26;31.50;99.90
35240;DHT22;21376;50.954;4.716;2023-08-12T11:42:01;32.50;99.90
35240;DHT22;21376;50.954;4.716;2023-08-12T11:46:58;33.60;99.90
35240;DHT22;21376;50.954;4.716;2023-08-12T11:51:53;32.30;99.90
35240;DHT22;21376;50.954;4.716;2023-08-12T11:54:19;31.20;99.90
35240;DHT22;21376;50.954;4.716;2023-08-12T11:59:22;32.60;99.90
35240;DHT22;21376;50.954;4.716;2023-08-12T12:01:51;33.70;99.90
35240;DHT22;21376;50.954;4.716;2023-08-12T12:04:17;33.80;99.90
35240;DHT22;21376;50.954;4.716;2023-08-12T12:06:46;33.70;99.90
35240;DHT22;21376;50.954;4.716;2023-08-12T12:09:13;33.50;99.90
35240;DHT22;21376;50.954;4.716;2023-08-12T12:11:42;33.00;99.90
35240;DHT22;21376;50.954;4.716;2023-08-12T12:17:08;32.60;99.90
35240;DHT22;21376;50.954;4.716;2023-08-12T12:19:41;31.60;99.90
35240;DHT22;21376;50.954;4.716;2023-08-12T12:24:48;32.60;99.90
35240;DHT22;21376;50.954;4.716;2023-08-12T12:27:17;32.60;99.90
35240;DHT22;21376;50.954;4.716;2023-08-12T12:29:44;33.10;99.90
35240;DHT22;21376;50.954;4.716;2023-08-12T12:32:13;31.10;99.90
35240;DHT22;21376;50.954;4.716;2023-08-12T12:34:39;30.30;99.90
35240;DHT22;21376;50.954;4.716;2023-08-12T12:37:05;29.60;99.90
35240;DHT22;21376;50.954;4.716;2023-08-12T12:39:34;30.10;99.90
35240;DHT22;21376;50.954;4.716;2023-08-12T12:42:00;30.20;99.90
35240;DHT22;21376;50.954;4.716;2023-08-12T12:44:30;30.70;99.90
35240;DHT22;21376;50.954;4.716;2023-08-12T12:46:56;30.70;99.90
35240;DHT22;21376;50.954;4.716;2023-08-12T12:49:24;30.70;99.90
35240;DHT22;21376;50.954;4.716;2023-08-12T12:54:19;30.20;99.90
35240;DHT22;21376;50.954;4.716;2023-08-12T12:56:50;31.60;99.90
35240;DHT22;21376;50.954;4.716;2023-08-12T12:59:16;32.70;99.90
35240;DHT22;21376;50.954;4.716;2023-08-12T13:04:29;31.80;99.90
35240;DHT22;21376;50.954;4.716;2023-08-12T13:06:58;32.10;99.90
35240;DHT22;21376;50.954;4.716;2023-08-12T13:09:25;30.60;99.90
35240;DHT22;21376;50.954;4.716;2023-08-12T13:11:54;30.70;99.90
35240;DHT22;21376;50.954;4.716;2023-08-12T13:14:23;31.10;99.90
35240;DHT22;21376;50.954;4.716;2023-08-12T13:16:49;31.20;99.90
35240;DHT22;21376;50.954;4.716;2023-08-12T13:21:43;32.70;99.90
35240;DHT22;21376;50.954;4.716;2023-08-12T13:24:09;31.90;99.90
35240;DHT22;21376;50.954;4.716;2023-08-12T13:26:35;32.70;99.90
35240;DHT22;21376;50.954;4.716;2023-08-12T13:29:03;33.50;99.90
35240;DHT22;21376;50.954;4.716;2023-08-12T13:31:29;32.80;99.90
35240;DHT22;21376;50.954;4.716;2023-08-12T13:33:58;31.80;99.90
35240;DHT22;21376;50.954;4.716;2023-08-12T13:36:29;31.00;99.90
35240;DHT22;21376;50.954;4.716;2023-08-12T13:38:59;30.60;99.90
35240;DHT22;21376;50.954;4.716;2023-08-12T13:41:24;30.00;99.90
35240;DHT22;21376;50.954;4.716;2023-08-12T13:46:31;29.20;99.90
35240;DHT22;21376;50.954;4.716;2023-08-12T13:51:25;28.40;99.90
35240;DHT22;21376;50.954;4.716;2023-08-12T13:53:52;28.00;99.90
35240;DHT22;21376;50.954;4.716;2023-08-12T13:56:19;27.40;99.90
35240;DHT22;21376;50.954;4.716;2023-08-12T13:58:51;26.90;99.90
35240;DHT22;21376;50.954;4.716;2023-08-12T14:01:20;26.60;99.90
35240;DHT22;21376;50.954;4.716;2023-08-12T14:06:18;27.00;99.90
35240;DHT22;21376;50.954;4.716;2023-08-12T14:11:18;26.60;99.90
35240;DHT22;21376;50.954;4.716;2023-08-12T14:13:48;26.40;99.90
35240;DHT22;21376;50.954;4.716;2023-08-12T14:16:14;26.40;99.90
35240;DHT22;21376;50.954;4.716;2023-08-12T14:18:43;26.20;99.90
35240;DHT22;21376;50.954;4.716;2023-08-12T14:21:09;25.90;99.90
35240;DHT22;21376;50.954;4.716;2023-08-12T14:26:06;26.20;99.90
35240;DHT22;21376;50.954;4.716;2023-08-12T14:31:04;26.70;99.90
35240;DHT22;21376;50.954;4.716;2023-08-12T14:33:31;27.00;99.90
35240;DHT22;21376;50.954;4.716;2023-08-12T14:36:00;27.00;99.90
35240;DHT22;21376;50.954;4.716;2023-08-12T14:38:30;26.90;99.90
35240;DHT22;21376;50.954;4.716;2023-08-12T14:41:00;26.70;99.90
35240;DHT22;21376;50.954;4.716;2023-08-12T14:43:30;26.60;99.90
35240;DHT22;21376;50.954;4.716;2023-08-12T14:48:25;26.10;99.90
35240;DHT22;21376;50.954;4.716;2023-08-12T14:50:51;25.90;99.90
35240;DHT22;21376;50.954;4.716;2023-08-12T14:58:17;25.80;99.90
35240;DHT22;21376;50.954;4.716;2023-08-12T15:00:46;25.70;99.90
35240;DHT22;21376;50.954;4.716;2023-08-12T15:03:15;25.80;99.90
35240;DHT22;21376;50.954;4.716;2023-08-12T15:08:14;26.00;99.90
35240;DHT22;21376;50.954;4.716;2023-08-12T15:10:39;25.70;99.90
35240;DHT22;21376;50.954;4.716;2023-08-12T15:15:50;25.60;99.90
35240;DHT22;21376;50.954;4.716;2023-08-12T15:18:19;25.60;99.90
35240;DHT22;21376;50.954;4.716;2023-08-12T15:23:17;25.90;99.90
35240;DHT22;21376;50.954;4.716;2023-08-12T15:25:46;26.10;99.90
35240;DHT22;21376;50.954;4.716;2023-08-12T15:28:15;25.80;99.90
35240;DHT22;21376;50.954;4.716;2023-08-12T15:33:12;25.60;99.90
35240;DHT22;21376;50.954;4.716;2023-08-12T15:35:38;25.80;99.90
35240;DHT22;21376;50.954;4.716;2023-08-12T15:38:05;26.20;99.90
35240;DHT22;21376;50.954;4.716;2023-08-12T15:40:36;26.40;99.90
35240;DHT22;21376;50.954;4.716;2023-08-12T15:43:13;26.30;99.90
35240;DHT22;21376;50.954;4.716;2023-08-12T15:45:42;25.80;99.90
35240;DHT22;21376;50.954;4.716;2023-08-12T15:48:09;25.70;99.90
35240;DHT22;21376;50.954;4.716;2023-08-12T15:50:54;25.80;99.90
35240;DHT22;21376;50.954;4.716;2023-08-12T15:53:20;25.80;99.90
35240;DHT22;21376;50.954;4.716;2023-08-12T15:58:17;25.50;99.90
35240;DHT22;21376;50.954;4.716;2023-08-12T16:00:44;25.50;99.90
35240;DHT22;21376;50.954;4.716;2023-08-12T16:03:13;25.30;99.90
35240;DHT22;21376;50.954;4.716;2023-08-12T16:05:40;25.00;99.90
35240;DHT22;21376;50.954;4.716;2023-08-12T16:08:08;24.70;99.90
35240;DHT22;21376;50.954;4.716;2023-08-12T16:10:35;24.70;99.90
35240;DHT22;21376;50.954;4.716;2023-08-12T16:13:04;24.60;99.90
35240;DHT22;21376;50.954;4.716;2023-08-12T16:23:33;24.70;99.90
35240;DHT22;21376;50.954;4.716;2023-08-12T16:26:02;24.90;99.90
35240;DHT22;21376;50.954;4.716;2023-08-12T16:28:29;25.20;99.90
35240;DHT22;21376;50.954;4.716;2023-08-12T16:30:55;25.30;99.90
35240;DHT22;21376;50.954;4.716;2023-08-12T16:33:21;25.10;99.90
35240;DHT22;21376;50.954;4.716;2023-08-12T16:35:53;24.90;99.90
35240;DHT22;21376;50.954;4.716;2023-08-12T16:38:22;24.60;99.90
35240;DHT22;21376;50.954;4.716;2023-08-12T16:40:48;24.40;99.90
35240;DHT22;21376;50.954;4.716;2023-08-12T16:43:17;24.30;99.90
35240;DHT22;21376;50.954;4.716;2023-08-12T16:45:43;24.30;99.90
35240;DHT22;21376;50.954;4.716;2023-08-12T16:48:12;24.40;99.90
35240;DHT22;21376;50.954;4.716;2023-08-12T16:50:41;24.60;99.90
35240;DHT22;21376;50.954;4.716;2023-08-12T16:55:50;25.10;99.90
35240;DHT22;21376;50.954;4.716;2023-08-12T16:58:16;25.00;99.90
35240;DHT22;21376;50.954;4.716;2023-08-12T17:03:27;24.70;99.90
35240;DHT22;21376;50.954;4.716;2023-08-12T17:05:56;24.50;99.90
35240;DHT22;21376;50.954;4.716;2023-08-12T17:08:23;24.50;99.90
35240;DHT22;21376;50.954;4.716;2023-08-12T17:10:49;24.50;99.90
35240;DHT22;21376;50.954;4.716;2023-08-12T17:13:31;24.50;99.90
35240;DHT22;21376;50.954;4.716;2023-08-12T17:15:58;24.60;99.90
35240;DHT22;21376;50.954;4.716;2023-08-12T17:18:24;24.50;99.90
35240;DHT22;21376;50.954;4.716;2023-08-12T17:23:22;24.40;99.90
35240;DHT22;21376;50.954;4.716;2023-08-12T17:28:17;24.10;99.90
35240;DHT22;21376;50.954;4.716;2023-08-12T17:30:44;23.90;99.90
35240;DHT22;21376;50.954;4.716;2023-08-12T17:33:11;23.90;99.90
35240;DHT22;21376;50.954;4.716;2023-08-12T17:35:50;23.70;99.90
35240;DHT22;21376;50.954;4.716;2023-08-12T17:38:17;23.60;99.90
35240;DHT22;21376;50.954;4.716;2023-08-12T17:40:48;23.40;99.90
35240;DHT22;21376;50.954;4.716;2023-08-12T17:48:17;23.50;99.90
35240;DHT22;21376;50.954;4.716;2023-08-12T17:50:46;23.50;99.90
35240;DHT22;21376;50.954;4.716;2023-08-12T17:55:56;23.40;99.90
35240;DHT22;21376;50.954;4.716;2023-08-12T18:00:53;23.30;99.90
35240;DHT22;21376;50.954;4.716;2023-08-12T18:05:51;23.00;99.90
35240;DHT22;21376;50.954;4.716;2023-08-12T18:10:49;22.80;99.90
35240;DHT22;21376;50.954;4.716;2023-08-12T18:13:20;22.70;99.90
35240;DHT22;21376;50.954;4.716;2023-08-12T18:15:49;22.70;99.90
35240;DHT22;21376;50.954;4.716;2023-08-12T18:18:18;22.50;99.90
35240;DHT22;21376;50.954;4.716;2023-08-12T18:20:44;22.50;99.90
35240;DHT22;21376;50.954;4.716;2023-08-12T18:26:22;22.40;99.90
35240;DHT22;21376;50.954;4.716;2023-08-12T18:34:20;22.10;99.90
35240;DHT22;21376;50.954;4.716;2023-08-12T18:36:49;22.00;99.90
35240;DHT22;21376;50.954;4.716;2023-08-12T18:39:14;21.90;99.90
35240;DHT22;21376;50.954;4.716;2023-08-12T18:41:43;21.80;99.90
35240;DHT22;21376;50.954;4.716;2023-08-12T18:46:42;21.70;99.90
35240;DHT22;21376;50.954;4.716;2023-08-12T18:51:36;21.60;99.90
35240;DHT22;21376;50.954;4.716;2023-08-12T18:56:36;21.50;99.90
35240;DHT22;21376;50.954;4.716;2023-08-12T18:59:05;21.40;99.90
35240;DHT22;21376;50.954;4.716;2023-08-12T19:01:33;21.30;99.90
35240;DHT22;21376;50.954;4.716;2023-08-12T19:06:33;21.10;99.90
35240;DHT22;21376;50.954;4.716;2023-08-12T19:09:02;21.10;99.90
35240;DHT22;21376;50.954;4.716;2023-08-12T19:11:38;21.10;99.90
35240;DHT22;21376;50.954;4.716;2023-08-12T19:14:07;21.10;99.90
35240;DHT22;21376;50.954;4.716;2023-08-12T19:16:35;21.00;99.90
35240;DHT22;21376;50.954;4.716;2023-08-12T19:19:00;20.90;99.90
35240;DHT22;21376;50.954;4.716;2023-08-12T19:21:37;20.80;99.90
35240;DHT22;21376;50.954;4.716;2023-08-12T19:24:16;20.80;99.90
35240;DHT22;21376;50.954;4.716;2023-08-12T19:29:13;20.70;99.90
35240;DHT22;21376;50.954;4.716;2023-08-12T19:34:08;20.50;99.90
35240;DHT22;21376;50.954;4.716;2023-08-12T19:36:37;20.40;99.90
35240;DHT22;21376;50.954;4.716;2023-08-12T19:39:20;20.30;99.90
35240;DHT22;21376;50.954;4.716;2023-08-12T19:41:47;20.20;99.90
35240;DHT22;21376;50.954;4.716;2023-08-12T19:44:16;20.10;99.90
35240;DHT22;21376;50.954;4.716;2023-08-12T19:46:42;20.00;99.90
35240;DHT22;21376;50.954;4.716;2023-08-12T19:52:01;19.80;99.90
35240;DHT22;21376;50.954;4.716;2023-08-12T19:54:30;19.70;99.90
35240;DHT22;21376;50.954;4.716;2023-08-12T19:56:58;19.60;99.90
35240;DHT22;21376;50.954;4.716;2023-08-12T19:59:27;19.60;99.90
35240;DHT22;21376;50.954;4.716;2023-08-12T20:01:57;19.50;99.90
35240;DHT22;21376;50.954;4.716;2023-08-12T20:06:55;19.50;99.90
35240;DHT22;21376;50.954;4.716;2023-08-12T20:11:51;19.40;99.90
35240;DHT22;21376;50.954;4.716;2023-08-12T20:14:17;19.40;99.90
35240;DHT22;21376;50.954;4.716;2023-08-12T20:16:43;19.40;99.90
35240;DHT22;21376;50.954;4.716;2023-08-12T20:19:11;19.40;99.90
35240;DHT22;21376;50.954;4.716;2023-08-12T20:21:53;19.20;99.90
35240;DHT22;21376;50.954;4.716;2023-08-12T20:24:19;19.10;99.90
35240;DHT22;21376;50.954;4.716;2023-08-12T20:26:48;19.00;99.90
35240;DHT22;21376;50.954;4.716;2023-08-12T20:29:17;18.90;99.90
35240;DHT22;21376;50.954;4.716;2023-08-12T20:31:46;18.90;99.90
35240;DHT22;21376;50.954;4.716;2023-08-12T20:34:12;18.80;99.90
35240;DHT22;21376;50.954;4.716;2023-08-12T20:36:38;18.70;99.90
35240;DHT22;21376;50.954;4.716;2023-08-12T20:39:10;18.70;99.90
35240;DHT22;21376;50.954;4.716;2023-08-12T20:41:38;18.60;99.90
35240;DHT22;21376;50.954;4.716;2023-08-12T20:44:07;18.60;99.90
35240;DHT22;21376;50.954;4.716;2023-08-12T20:49:04;18.40;99.90
35240;DHT22;21376;50.954;4.716;2023-08-12T20:51:30;18.30;99.90
35240;DHT22;21376;50.954;4.716;2023-08-12T20:53:56;18.20;99.90
35240;DHT22;21376;50.954;4.716;2023-08-12T20:56:26;18.10;99.90
35240;DHT22;21376;50.954;4.716;2023-08-12T20:58:52;18.00;99.90
35240;DHT22;21376;50.954;4.716;2023-08-12T21:03:48;17.90;99.90
35240;DHT22;21376;50.954;4.716;2023-08-12T21:06:17;17.90;99.90
35240;DHT22;21376;50.954;4.716;2023-08-12T21:08:43;17.90;99.90
35240;DHT22;21376;50.954;4.716;2023-08-12T21:11:12;17.90;99.90
35240;DHT22;21376;50.954;4.716;2023-08-12T21:16:07;17.90;99.90
35240;DHT22;21376;50.954;4.716;2023-08-12T21:18:36;17.90;99.90
35240;DHT22;21376;50.954;4.716;2023-08-12T21:21:06;17.90;99.90
35240;DHT22;21376;50.954;4.716;2023-08-12T21:26:02;17.80;99.90
35240;DHT22;21376;50.954;4.716;2023-08-12T21:28:38;17.80;99.90
35240;DHT22;21376;50.954;4.716;2023-08-12T21:31:07;17.80;99.90
35240;DHT22;21376;50.954;4.716;2023-08-12T21:33:34;17.80;99.90
35240;DHT22;21376;50.954;4.716;2023-08-12T21:36:00;17.80;99.90
35240;DHT22;21376;50.954;4.716;2023-08-12T21:38:39;17.80;99.90
35240;DHT22;21376;50.954;4.716;2023-08-12T21:41:08;17.70;99.90
35240;DHT22;21376;50.954;4.716;2023-08-12T21:43:34;17.60;99.90
35240;DHT22;21376;50.954;4.716;2023-08-12T21:46:02;17.70;99.90
35240;DHT22;21376;50.954;4.716;2023-08-12T21:48:28;17.70;99.90
35240;DHT22;21376;50.954;4.716;2023-08-12T21:50:54;17.60;99.90